Time;durP1;ratioP1;P1;durP2;ratioP2;P2;SDS_P1;SDS_P2;PMS_P1;PMS_P2;Temp;Humidity;BMP_temperature;BMP_pressure;BME280_temperature;BME280_humidity;BME280_pressure;Samples;Min_cycle;Max_cycle;Signal;HPM_P1;HPM_P2
2022/03/17 00:00:53;;;;;;;21.92;15.07;;;10.50;99.90;;;;;;4934800;29;20444;-71
2022/03/17 00:03:19;;;;;;;23.83;15.98;;;10.50;99.90;;;;;;4935149;29;20039;-71
2022/03/17 00:05:45;;;;;;;19.65;15.45;;;10.50;99.90;;;;;;4918946;29;20062;-71
2022/03/17 00:08:11;;;;;;;21.38;15.57;;;10.50;99.90;;;;;;4935016;29;20138;-71
2022/03/17 00:10:37;;;;;;;;;;;10.50;99.90;;;;;;4935574;29;20403;-71
2022/03/17 00:13:03;;;;;;;22.33;17.02;;;10.50;99.90;;;;;;4934866;29;19929;-71
2022/03/17 00:15:29;;;;;;;25.77;17.05;;;10.50;99.90;;;;;;4934796;29;20116;-71
2022/03/17 00:17:54;;;;;;;23.77;16.33;;;10.50;99.90;;;;;;4934802;29;20451;-71
2022/03/17 00:20:22;;;;;;;21.80;15.65;;;10.50;99.90;;;;;;4935054;29;20155;-71
2022/03/17 00:22:47;;;;;;;22.35;16.60;;;10.50;99.90;;;;;;4934358;29;20047;-71
2022/03/17 00:25:13;;;;;;;24.88;15.93;;;10.40;99.90;;;;;;4918800;29;20039;-71
2022/03/17 00:27:39;;;;;;;19.67;15.70;;;10.50;99.90;;;;;;4911702;29;20044;-71
2022/03/17 00:30:06;;;;;;;22.20;16.77;;;10.40;99.90;;;;;;4934110;28;20407;-71
2022/03/17 00:32:32;;;;;;;23.17;16.65;;;10.40;99.90;;;;;;4934232;29;20126;-71
2022/03/17 00:37:41;;;;;;;22.35;16.70;;;10.40;99.90;;;;;;4933750;29;20039;-71
2022/03/17 00:40:08;;;;;;;22.35;16.08;;;10.40;99.90;;;;;;4933746;29;20403;-71
2022/03/17 00:42:33;;;;;;;26.48;16.80;;;10.40;99.90;;;;;;4933784;29;20488;-71
2022/03/17 00:44:59;;;;;;;26.30;17.23;;;10.40;99.90;;;;;;4933955;29;20043;-71
2022/03/17 00:47:25;;;;;;;23.95;16.52;;;10.40;99.90;;;;;;4934543;29;20454;-71
2022/03/17 00:49:50;;;;;;;24.45;17.55;;;10.40;99.90;;;;;;4934357;29;20051;-70
2022/03/17 00:52:20;;;;;;;25.33;16.80;;;10.30;99.90;;;;;;4934271;29;20043;-71
2022/03/17 00:54:46;;;;;;;22.45;16.83;;;10.30;99.90;;;;;;4934061;29;20509;-70
2022/03/17 00:57:12;;;;;;;21.45;16.17;;;10.30;99.90;;;;;;4951756;28;20071;-71
2022/03/17 00:59:38;;;;;;;;;;;10.30;99.90;;;;;;4918832;29;20090;-71
2022/03/17 01:02:05;;;;;;;24.50;17.70;;;10.30;99.90;;;;;;4933750;29;19968;-71
2022/03/17 01:04:31;;;;;;;22.02;16.35;;;10.30;99.90;;;;;;4918412;29;20043;-70
2022/03/17 01:06:57;;;;;;;24.90;17.40;;;10.30;99.90;;;;;;4932148;28;20067;-70
2022/03/17 01:09:23;;;;;;;21.77;15.90;;;10.30;99.90;;;;;;4934320;29;20044;-71
2022/03/17 01:11:49;;;;;;;23.63;17.20;;;10.20;99.90;;;;;;4934099;29;20042;-70
2022/03/17 01:14:16;;;;;;;23.63;16.35;;;10.30;99.90;;;;;;4901834;29;20043;-70
2022/03/17 01:16:42;;;;;;;24.02;16.88;;;10.30;99.90;;;;;;4934028;29;20118;-70
2022/03/17 01:19:08;;;;;;;;;;;10.30;99.90;;;;;;4934532;29;20046;-70
2022/03/17 01:21:34;;;;;;;23.42;17.10;;;10.20;99.90;;;;;;4934585;29;19929;-71
2022/03/17 01:24:00;;;;;;;26.33;17.98;;;10.20;99.90;;;;;;4933377;29;20059;-71
2022/03/17 01:26:25;;;;;;;24.00;17.15;;;10.20;99.90;;;;;;4933379;29;20441;-70
2022/03/17 01:28:52;;;;;;;23.75;17.02;;;10.20;99.90;;;;;;4933608;29;20571;-71
2022/03/17 01:31:18;;;;;;;21.50;16.45;;;10.20;99.90;;;;;;4934036;29;20046;-71
2022/03/17 01:33:44;;;;;;;21.55;16.25;;;10.20;99.90;;;;;;4901252;29;20110;-71
2022/03/17 01:36:10;;;;;;;23.65;17.33;;;10.20;99.90;;;;;;4932068;29;20039;-71
2022/03/17 01:38:35;;;;;;;23.58;16.98;;;10.10;99.90;;;;;;4940084;29;20503;-71
2022/03/17 01:41:01;;;;;;;22.63;16.90;;;10.10;99.90;;;;;;4933087;28;20035;-71
2022/03/17 01:43:27;;;;;;;23.88;17.60;;;10.20;99.90;;;;;;4941431;28;20081;-71
2022/03/17 01:45:53;;;;;;;22.92;17.02;;;10.20;99.90;;;;;;4936692;29;20558;-72
2022/03/17 01:48:22;;;;;;;21.65;16.13;;;10.20;99.90;;;;;;4920707;29;20047;-72
2022/03/17 01:50:49;;;;;;;23.70;17.50;;;10.20;99.90;;;;;;4936844;29;20510;-71
2022/03/17 01:53:15;;;;;;;22.92;17.17;;;10.20;99.90;;;;;;4936926;29;20360;-71
2022/03/17 01:55:41;;;;;;;24.70;17.58;;;10.20;99.90;;;;;;4936608;29;20051;-70
2022/03/17 01:58:07;;;;;;;24.08;16.85;;;10.10;99.90;;;;;;4921595;29;20047;-72
2022/03/17 02:00:33;;;;;;;23.80;17.42;;;10.10;99.90;;;;;;4937292;29;20047;-71
2022/03/17 02:02:59;;;;;;;23.85;17.58;;;10.10;99.90;;;;;;4936901;29;20039;-71
2022/03/17 02:05:25;;;;;;;23.00;17.17;;;10.10;99.90;;;;;;4937029;29;20050;-71
2022/03/17 02:07:51;;;;;;;23.70;16.98;;;10.20;99.90;;;;;;4920767;29;20129;-71
2022/03/17 02:10:18;;;;;;;24.40;17.98;;;10.20;99.90;;;;;;4936408;29;20047;-71
2022/03/17 02:15:29;;;;;;;23.48;16.25;;;10.30;99.90;;;;;;4922106;29;20748;-70
2022/03/17 02:17:55;;;;;;;22.67;16.90;;;10.30;99.90;;;;;;4920253;29;20047;-71
2022/03/17 02:20:24;;;;;;;24.33;17.90;;;10.30;99.90;;;;;;4920134;29;20054;-71
2022/03/17 02:22:51;;;;;;;26.73;18.05;;;10.30;99.90;;;;;;4935063;29;20118;-71
2022/03/17 02:25:36;;;;;;;27.10;17.65;;;10.30;99.90;;;;;;4935105;29;20043;-71
2022/03/17 02:28:07;;;;;;;23.17;17.17;;;10.30;99.90;;;;;;4920001;29;20090;-71
2022/03/17 02:30:35;;;;;;;23.90;17.17;;;10.30;99.90;;;;;;4935248;29;20038;-71
2022/03/17 02:33:09;;;;;;;24.42;17.30;;;10.30;99.90;;;;;;4918985;29;21501;-71
2022/03/17 02:35:37;;;;;;;24.05;17.02;;;10.20;99.90;;;;;;4933884;29;20057;-71
2022/03/17 02:38:04;;;;;;;21.92;16.98;;;10.20;99.90;;;;;;4938962;29;20055;-71
2022/03/17 02:40:31;;;;;;;22.95;17.55;;;10.20;99.90;;;;;;4935036;29;20153;-74
2022/03/17 02:42:57;;;;;;;24.10;17.98;;;10.10;99.90;;;;;;4936103;29;20047;-79
2022/03/17 02:45:24;;;;;;;22.30;16.35;;;10.10;99.90;;;;;;4935657;29;20411;-79
2022/03/17 02:47:53;;;;;;;24.02;18.67;;;10.20;99.90;;;;;;4952907;29;20117;-78
2022/03/17 02:50:19;;;;;;;23.42;17.25;;;10.20;99.90;;;;;;4933564;29;20050;-78
2022/03/17 02:52:44;;;;;;;22.73;17.77;;;10.30;99.90;;;;;;4935088;28;20055;-78
2022/03/17 02:55:11;;;;;;;22.60;17.27;;;10.30;99.90;;;;;;4934993;29;20082;-78
2022/03/17 02:57:41;;;;;;;22.73;16.73;;;10.30;99.90;;;;;;4919854;29;20498;-75
2022/03/17 03:00:09;;;;;;;23.98;17.42;;;10.40;99.90;;;;;;4934941;29;20483;-75
2022/03/17 03:02:36;;;;;;;21.23;16.67;;;10.40;99.90;;;;;;4917618;29;20526;-74
2022/03/17 03:05:02;;;;;;;;;;;10.40;99.90;;;;;;4934658;29;20487;-75
2022/03/17 03:07:28;;;;;;;23.87;17.20;;;10.40;99.90;;;;;;4933278;29;19947;-75
2022/03/17 03:09:55;;;;;;;24.15;18.25;;;10.40;99.90;;;;;;4935654;29;20785;-77
2022/03/17 03:12:21;;;;;;;23.08;17.63;;;10.50;99.90;;;;;;4952427;29;20434;-78
2022/03/17 03:14:48;;;;;;;22.92;17.45;;;10.50;99.90;;;;;;4934863;29;20087;-78
2022/03/17 03:17:14;;;;;;;21.70;17.25;;;10.50;99.90;;;;;;4949953;29;20512;-78
2022/03/17 03:19:39;;;;;;;24.00;17.55;;;10.50;99.90;;;;;;4934413;29;20076;-78
2022/03/17 03:22:05;;;;;;;21.55;18.00;;;10.50;99.90;;;;;;4934880;29;20634;-77
2022/03/17 03:24:31;;;;;;;23.75;17.95;;;10.50;99.90;;;;;;4950465;29;20043;-77
2022/03/17 03:26:59;;;;;;;23.85;17.70;;;10.50;99.90;;;;;;4949586;29;20066;-77
2022/03/17 03:29:28;;;;;;;22.67;17.90;;;10.60;99.90;;;;;;4934823;29;20130;-78
2022/03/17 03:31:56;;;;;;;25.63;18.73;;;10.60;99.90;;;;;;4918765;29;20043;-78
2022/03/17 03:34:23;;;;;;;25.08;18.58;;;10.60;99.90;;;;;;4934680;29;20514;-77
2022/03/17 03:39:34;;;;;;;24.45;19.38;;;10.60;99.90;;;;;;4932860;29;20051;-75
2022/03/17 03:42:00;;;;;;;22.67;18.33;;;10.70;99.90;;;;;;4918310;29;20054;-75
2022/03/17 03:44:26;;;;;;;25.75;19.27;;;10.70;99.90;;;;;;4934974;29;20495;-74
2022/03/17 03:46:52;;;;;;;25.92;19.65;;;10.70;99.90;;;;;;4934022;29;20044;-75
2022/03/17 03:49:19;;;;;;;22.95;18.75;;;10.80;99.90;;;;;;4933580;29;20386;-75
2022/03/17 03:51:44;;;;;;;26.10;19.02;;;10.80;99.90;;;;;;4945370;29;20052;-75
2022/03/17 03:54:14;;;;;;;25.98;18.95;;;10.70;99.90;;;;;;4919339;29;20143;-75
2022/03/17 03:56:44;;;;;;;24.98;19.42;;;10.70;99.90;;;;;;4952348;29;20075;-77
2022/03/17 03:59:20;;;;;;;23.15;18.52;;;10.70;99.90;;;;;;4935091;29;20487;-78
2022/03/17 04:01:48;;;;;;;25.15;19.27;;;10.70;99.90;;;;;;4935354;29;20051;-77
2022/03/17 04:04:20;;;;;;;23.55;19.25;;;10.70;99.90;;;;;;4952042;28;20051;-77
2022/03/17 04:06:48;;;;;;;24.70;19.75;;;10.70;99.90;;;;;;4934475;29;20086;-78
2022/03/17 04:09:16;;;;;;;23.65;19.10;;;10.70;99.90;;;;;;4952269;28;20058;-77
2022/03/17 04:11:42;;;;;;;26.60;21.50;;;10.60;99.90;;;;;;4935242;29;20486;-78
2022/03/17 04:14:09;;;;;;;26.55;20.92;;;10.50;99.90;;;;;;4934721;29;20082;-78
2022/03/17 04:16:35;;;;;;;27.25;21.35;;;10.40;99.90;;;;;;4934262;29;20356;-77
2022/03/17 04:19:01;;;;;;;29.58;22.33;;;10.20;99.90;;;;;;4919030;29;20054;-77
2022/03/17 04:21:27;;;;;;;26.80;21.48;;;10.10;99.90;;;;;;4935025;29;20498;-75
2022/03/17 04:23:53;;;;;;;;;;;10.00;99.90;;;;;;4919265;29;20074;-75
2022/03/17 04:26:19;;;;;;;30.17;23.05;;;9.90;99.90;;;;;;4934642;29;20013;-76
2022/03/17 04:28:44;;;;;;;30.70;22.27;;;9.80;99.90;;;;;;4934404;29;20062;-76
2022/03/17 04:31:11;;;;;;;30.10;22.90;;;9.70;99.90;;;;;;4918548;29;20166;-76
2022/03/17 04:33:36;;;;;;;29.58;23.50;;;9.60;99.90;;;;;;4919462;29;20468;-76
2022/03/17 04:36:07;;;;;;;32.92;24.10;;;9.60;99.90;;;;;;4934126;29;20187;-76
2022/03/17 04:38:33;;;;;;;29.85;23.25;;;9.50;99.90;;;;;;4934156;29;20035;-76
2022/03/17 04:40:59;;;;;;;;;;;9.50;99.90;;;;;;4919307;29;20069;-76
2022/03/17 04:43:25;;;;;;;31.17;24.38;;;9.50;99.90;;;;;;4918428;29;20374;-76
2022/03/17 04:45:51;;;;;;;34.85;26.80;;;9.50;99.90;;;;;;4914401;29;20134;-76
2022/03/17 04:48:17;;;;;;;33.03;26.40;;;9.50;99.90;;;;;;4933773;28;20043;-76
2022/03/17 04:50:43;;;;;;;34.28;26.92;;;9.50;99.90;;;;;;4933888;29;20054;-75
2022/03/17 04:53:27;;;;;;;34.25;26.23;;;9.50;99.90;;;;;;4918873;29;20344;-78
2022/03/17 04:56:14;;;;;;;35.10;26.08;;;9.40;99.90;;;;;;4934964;28;20039;-79
2022/03/17 04:58:42;;;;;;;35.85;27.17;;;9.40;99.90;;;;;;4929439;29;20642;-78
2022/03/17 05:01:09;;;;;;;39.75;29.95;;;9.40;99.90;;;;;;4917472;29;20086;-77
2022/03/17 05:03:36;;;;;;;38.63;28.67;;;9.40;99.90;;;;;;4934560;28;20105;-77
2022/03/17 05:06:03;;;;;;;38.95;28.60;;;9.30;99.90;;;;;;4934388;29;20179;-76
2022/03/17 05:08:29;;;;;;;39.45;29.40;;;9.30;99.90;;;;;;4933652;29;20123;-76
2022/03/17 05:10:54;;;;;;;42.92;31.25;;;9.20;99.90;;;;;;4919333;29;20167;-76
2022/03/17 05:13:22;;;;;;;35.45;27.02;;;9.30;99.90;;;;;;4920310;29;20047;-76
2022/03/17 05:15:49;;;;;;;34.75;25.45;;;9.30;99.90;;;;;;4934624;28;20187;-77
2022/03/17 05:18:15;;;;;;;20.67;15.02;;;9.30;99.90;;;;;;4938310;29;20039;-76
2022/03/17 05:20:41;;;;;;;13.77;10.18;;;9.10;99.90;;;;;;4939282;29;20050;-76
2022/03/17 05:23:10;;;;;;;12.18;8.63;;;8.90;99.90;;;;;;4938766;29;20075;-75
2022/03/17 05:25:38;;;;;;;8.73;7.25;;;8.80;99.90;;;;;;4938842;29;20055;-76
2022/03/17 05:28:04;;;;;;;8.65;6.93;;;8.50;99.90;;;;;;4935269;29;20338;-76
2022/03/17 05:30:30;;;;;;;7.80;6.55;;;8.50;99.90;;;;;;4938094;29;20142;-76
2022/03/17 05:32:57;;;;;;;6.90;5.93;;;8.40;99.90;;;;;;4955125;29;20043;-77
2022/03/17 05:35:23;;;;;;;7.10;5.90;;;8.20;99.90;;;;;;4922643;29;20043;-76
2022/03/17 05:37:50;;;;;;;6.85;6.00;;;8.20;99.90;;;;;;4937097;28;20137;-77
2022/03/17 05:40:17;;;;;;;7.35;5.68;;;8.20;99.90;;;;;;4937776;29;20101;-77
2022/03/17 05:42:50;;;;;;;8.35;5.97;;;8.00;99.90;;;;;;4955733;28;20101;-74
2022/03/17 05:45:16;;;;;;;6.65;5.50;;;8.00;99.90;;;;;;4933466;29;20538;-75
2022/03/17 05:47:47;;;;;;;8.02;6.90;;;8.10;99.90;;;;;;4937513;29;20502;-76
2022/03/17 05:50:24;;;;;;;;;;;7.90;99.90;;;;;;4932238;29;20493;-76
2022/03/17 05:52:50;;;;;;;11.50;8.10;;;8.10;99.90;;;;;;4937657;29;20032;-76
2022/03/17 05:55:23;;;;;;;;;;;7.90;99.90;;;;;;4938404;29;20059;-76
2022/03/17 05:57:50;;;;;;;13.52;8.68;;;8.00;99.90;;;;;;4936238;29;19969;-76
2022/03/17 06:00:19;;;;;;;19.35;10.63;;;7.80;99.90;;;;;;4954215;28;20047;-75
2022/03/17 06:02:46;;;;;;;16.75;10.00;;;7.90;99.90;;;;;;4944387;29;20035;-76
2022/03/17 06:05:13;;;;;;;15.73;9.10;;;7.90;99.90;;;;;;4924163;29;20625;-74
2022/03/17 06:07:43;;;;;;;14.27;9.57;;;7.80;99.90;;;;;;4925795;29;20051;-74
2022/03/17 06:10:16;;;;;;;15.80;9.20;;;7.80;99.90;;;;;;4915510;29;20113;-74
2022/03/17 06:12:43;;;;;;;13.95;7.88;;;7.90;99.90;;;;;;4933256;29;20091;-76
2022/03/17 06:15:09;;;;;;;18.08;6.90;;;7.80;99.90;;;;;;4911973;29;20036;-75
2022/03/17 06:17:56;;;;;;;12.75;6.10;;;7.80;99.90;;;;;;4931140;29;20063;-75
2022/03/17 06:20:27;;;;;;;14.90;5.50;;;7.70;99.90;;;;;;4947934;29;20040;-74
2022/03/17 06:22:55;;;;;;;13.07;5.80;;;7.70;99.90;;;;;;4919456;29;20042;-75
2022/03/17 06:25:24;;;;;;;10.10;4.82;;;7.70;99.90;;;;;;4937102;29;20039;-75
2022/03/17 06:27:50;;;;;;;14.77;5.30;;;7.60;99.90;;;;;;4936030;29;20059;-75
2022/03/17 06:30:18;;;;;;;15.23;5.80;;;7.70;99.90;;;;;;4920504;29;20402;-75
2022/03/17 06:32:45;;;;;;;15.35;5.63;;;7.80;99.90;;;;;;4936220;29;20074;-75
2022/03/17 06:35:13;;;;;;;;;;;7.70;99.90;;;;;;4936755;29;20090;-75
2022/03/17 06:37:39;;;;;;;10.80;4.75;;;7.70;99.90;;;;;;4936322;29;20385;-74
2022/03/17 06:40:06;;;;;;;13.77;4.93;;;7.70;99.90;;;;;;4918509;28;20055;-75
2022/03/17 06:42:32;;;;;;;10.65;4.25;;;7.70;99.90;;;;;;4920052;29;20522;-76
2022/03/17 06:44:58;;;;;;;15.73;4.40;;;7.70;99.90;;;;;;4936366;29;20047;-76
2022/03/17 06:47:24;;;;;;;15.18;3.75;;;7.70;99.90;;;;;;4936710;28;20407;-76
2022/03/17 06:49:50;;;;;;;12.70;3.67;;;7.60;99.90;;;;;;4936312;29;20039;-76
2022/03/17 06:52:15;;;;;;;8.45;2.80;;;7.70;99.90;;;;;;4936428;29;20079;-76
2022/03/17 06:54:41;;;;;;;9.23;2.33;;;7.70;99.90;;;;;;4919367;29;20074;-74
2022/03/17 06:57:07;;;;;;;9.52;2.28;;;7.70;99.90;;;;;;4936649;29;20053;-74
2022/03/17 06:59:38;;;;;;;9.20;2.58;;;7.70;99.90;;;;;;4935738;29;20054;-74
2022/03/17 07:02:04;;;;;;;9.68;2.10;;;7.70;99.90;;;;;;4951405;28;20047;-75
2022/03/17 07:04:30;;;;;;;8.65;2.40;;;7.60;99.90;;;;;;4918310;29;20051;-74
2022/03/17 07:06:56;;;;;;;8.55;2.13;;;7.70;99.90;;;;;;4936684;29;20423;-75
2022/03/17 07:09:22;;;;;;;7.50;2.03;;;7.60;99.90;;;;;;4936407;29;20047;-74
2022/03/17 07:11:47;;;;;;;8.80;1.48;;;7.60;99.90;;;;;;4920415;29;20515;-75
2022/03/17 07:14:13;;;;;;;7.22;1.98;;;7.70;99.90;;;;;;4920640;29;20360;-75
2022/03/17 07:16:39;;;;;;;7.80;1.55;;;7.70;99.90;;;;;;4928770;29;20042;-74
2022/03/17 07:19:07;;;;;;;7.50;1.60;;;7.60;99.90;;;;;;4936080;29;20039;-75
2022/03/17 07:21:33;;;;;;;5.93;1.67;;;7.60;99.90;;;;;;4936475;29;20039;-74
2022/03/17 07:23:59;;;;;;;8.75;1.88;;;7.60;99.90;;;;;;4917787;29;20106;-74
2022/03/17 07:26:26;;;;;;;6.80;1.65;;;7.60;99.90;;;;;;4920075;29;20035;-75
2022/03/17 07:28:54;;;;;;;8.50;1.60;;;7.70;99.90;;;;;;4936120;29;20125;-74
2022/03/17 07:31:21;;;;;;;6.22;1.50;;;7.60;99.90;;;;;;4920094;29;20568;-75
2022/03/17 07:33:49;;;;;;;8.07;1.80;;;7.70;99.90;;;;;;4936243;29;20130;-75
2022/03/17 07:36:21;;;;;;;12.27;1.73;;;7.60;99.90;;;;;;4936949;29;20046;-75
2022/03/17 07:38:47;;;;;;;11.30;1.88;;;7.60;99.90;;;;;;4935748;29;20043;-75
2022/03/17 07:41:13;;;;;;;6.40;1.48;;;7.60;99.90;;;;;;4935908;29;20117;-75
2022/03/17 07:43:41;;;;;;;;;;;7.60;99.90;;;;;;4936266;29;20047;-75
2022/03/17 07:46:07;;;;;;;9.38;2.00;;;7.60;99.90;;;;;;4935840;29;19937;-75
2022/03/17 07:48:32;;;;;;;11.90;1.70;;;7.60;99.90;;;;;;4935825;29;20042;-75
2022/03/17 07:50:58;;;;;;;7.32;1.55;;;7.60;99.90;;;;;;4920150;29;20474;-75
2022/03/17 07:53:24;;;;;;;13.52;2.20;;;7.60;99.90;;;;;;4935412;29;20487;-75
2022/03/17 07:55:54;;;;;;;9.57;1.90;;;7.60;99.90;;;;;;4935757;29;20057;-75
2022/03/17 07:58:24;;;;;;;12.93;2.13;;;7.60;99.90;;;;;;4952938;29;20051;-75
2022/03/17 08:00:54;;;;;;;13.48;1.92;;;7.50;99.90;;;;;;4912193;29;20035;-75
2022/03/17 08:03:21;;;;;;;12.80;1.95;;;7.50;99.90;;;;;;4919837;29;20039;-75
2022/03/17 08:05:47;;;;;;;;;;;7.60;99.90;;;;;;4953297;29;20043;-75
2022/03/17 08:08:14;;;;;;;12.07;1.83;;;7.60;99.90;;;;;;4935680;29;20075;-74
2022/03/17 08:10:40;;;;;;;13.02;1.70;;;7.60;99.90;;;;;;4935343;29;20074;-75
2022/03/17 08:13:09;;;;;;;9.00;1.60;;;7.60;99.90;;;;;;4935334;29;20039;-75
2022/03/17 08:15:39;;;;;;;15.30;2.00;;;7.70;99.90;;;;;;4935438;29;20411;-75
2022/03/17 08:18:06;;;;;;;14.40;2.10;;;7.70;99.90;;;;;;4919662;29;20141;-75
2022/03/17 08:20:35;;;;;;;17.20;2.67;;;7.70;99.90;;;;;;4952418;29;20467;-75
2022/03/17 08:23:01;;;;;;;16.77;2.53;;;7.60;99.90;;;;;;4919903;29;20444;-74
2022/03/17 08:25:27;;;;;;;16.55;2.53;;;7.70;99.90;;;;;;4934850;29;20043;-75
2022/03/17 08:27:55;;;;;;;16.40;2.30;;;7.70;99.90;;;;;;4934952;29;20050;-75
2022/03/17 08:30:21;;;;;;;13.35;2.08;;;7.70;99.90;;;;;;4935318;29;20043;-74
2022/03/17 08:32:48;;;;;;;14.68;2.42;;;7.70;99.90;;;;;;4934711;29;20051;-74
2022/03/17 08:35:14;;;;;;;18.13;2.45;;;7.70;99.90;;;;;;4935286;29;20066;-75
2022/03/17 08:37:41;;;;;;;13.80;2.97;;;7.70;99.90;;;;;;4935110;29;20158;-74
2022/03/17 08:40:08;;;;;;;15.15;2.50;;;7.80;99.90;;;;;;4934924;29;20074;-74
2022/03/17 08:42:34;;;;;;;12.20;2.20;;;7.80;99.90;;;;;;4934987;29;20090;-74
2022/03/17 08:45:00;;;;;;;12.43;1.90;;;7.80;99.90;;;;;;4934658;29;20102;-74
2022/03/17 08:50:10;;;;;;;11.82;1.98;;;7.70;99.90;;;;;;4934638;29;20156;-74
2022/03/17 08:52:36;;;;;;;8.65;1.48;;;7.70;99.90;;;;;;4934111;29;20130;-74
2022/03/17 08:55:03;;;;;;;10.27;1.92;;;7.70;99.90;;;;;;4934865;29;20049;-74
2022/03/17 08:57:29;;;;;;;10.95;2.05;;;7.70;99.90;;;;;;4934866;29;20043;-74
2022/03/17 08:59:54;;;;;;;9.73;2.10;;;7.60;99.90;;;;;;4934103;29;20039;-74
2022/03/17 09:02:20;;;;;;;11.13;2.45;;;7.60;99.90;;;;;;4934813;29;20047;-74
2022/03/17 09:04:46;;;;;;;19.30;2.65;;;7.70;99.90;;;;;;4919183;29;20062;-73
2022/03/17 09:07:12;;;;;;;12.50;1.85;;;7.70;99.90;;;;;;4918766;29;20134;-74
2022/03/17 09:09:41;;;;;;;13.88;1.83;;;7.70;99.90;;;;;;4934634;29;20090;-74
2022/03/17 09:12:08;;;;;;;11.73;2.50;;;7.80;99.90;;;;;;4934241;29;20050;-74
2022/03/17 09:14:36;;;;;;;10.52;2.10;;;7.80;99.90;;;;;;4934719;29;20047;-74
2022/03/17 09:17:02;;;;;;;14.30;2.10;;;7.90;99.90;;;;;;4918498;29;20490;-74
2022/03/17 09:19:28;;;;;;;7.95;1.95;;;7.90;99.90;;;;;;4934546;29;20615;-74
2022/03/17 09:21:53;;;;;;;11.75;1.83;;;7.90;99.90;;;;;;4919193;29;20055;-74
2022/03/17 09:24:19;;;;;;;12.23;1.90;;;7.90;99.90;;;;;;4934417;29;20387;-74
2022/03/17 09:26:45;;;;;;;9.02;1.80;;;7.80;99.90;;;;;;4934449;29;20047;-74
2022/03/17 09:29:11;;;;;;;;;;;7.90;99.90;;;;;;4919036;29;20036;-74
2022/03/17 09:31:37;;;;;;;10.45;2.08;;;7.80;99.90;;;;;;4934426;29;19925;-74
2022/03/17 09:34:04;;;;;;;9.45;2.25;;;8.00;99.90;;;;;;4918555;29;20554;-74
2022/03/17 09:36:29;;;;;;;7.70;1.70;;;8.10;99.90;;;;;;4934430;29;20143;-74
2022/03/17 09:41:42;;;;;;;16.40;2.47;;;8.20;99.90;;;;;;4934189;29;20058;-74
2022/03/17 09:44:07;;;;;;;11.48;2.10;;;8.30;99.90;;;;;;4934381;29;20121;-74
2022/03/17 09:46:34;;;;;;;12.35;2.00;;;8.40;99.90;;;;;;4918882;29;20039;-74
2022/03/17 09:49:03;;;;;;;11.25;2.42;;;8.40;99.90;;;;;;4934251;29;20379;-74
2022/03/17 09:51:29;;;;;;;12.07;1.90;;;8.50;99.90;;;;;;4933988;29;20388;-74
2022/03/17 09:54:00;;;;;;;10.18;3.20;;;8.50;99.90;;;;;;4934358;29;20122;-74
2022/03/17 09:56:27;;;;;;;18.42;2.67;;;8.60;99.90;;;;;;4918443;29;20498;-74
2022/03/17 09:58:55;;;;;;;10.50;2.00;;;8.70;99.90;;;;;;4934386;29;20042;-74
2022/03/17 10:01:21;;;;;;;14.38;2.53;;;8.80;99.90;;;;;;4918140;29;20047;-74
2022/03/17 10:03:48;;;;;;;12.43;1.90;;;8.80;99.90;;;;;;4917977;29;20047;-74
2022/03/17 10:06:15;;;;;;;8.55;1.90;;;8.90;99.90;;;;;;4935074;29;20142;-74
2022/03/17 10:08:48;;;;;;;9.00;2.00;;;8.80;99.90;;;;;;4937795;29;20433;-73
2022/03/17 10:11:30;;;;;;;12.40;2.15;;;8.60;99.90;;;;;;4921636;29;20047;-73
2022/03/17 10:13:59;;;;;;;10.05;1.90;;;8.70;99.90;;;;;;4921883;29;20122;-74
2022/03/17 10:16:27;;;;;;;10.63;2.30;;;8.90;99.90;;;;;;4937372;29;20047;-74
2022/03/17 10:19:04;;;;;;;11.57;1.83;;;9.00;99.90;;;;;;4937271;29;20042;-74
2022/03/17 10:21:30;;;;;;;8.77;1.80;;;9.00;99.90;;;;;;4937350;29;20511;-74
2022/03/17 10:24:03;;;;;;;10.80;1.98;;;9.20;99.90;;;;;;4937796;29;20051;-75
2022/03/17 10:26:33;;;;;;;8.93;2.03;;;9.20;99.90;;;;;;4936901;29;20057;-75
2022/03/17 10:29:17;;;;;;;10.95;2.28;;;9.40;99.90;;;;;;4937494;29;20166;-76
2022/03/17 10:32:09;;;;;;;9.90;1.75;;;9.20;99.90;;;;;;4914521;29;20043;-75
2022/03/17 10:34:47;;;;;;;6.53;1.55;;;9.40;99.90;;;;;;4937137;29;20126;-75
2022/03/17 10:37:16;;;;;;;8.95;1.80;;;9.30;99.90;;;;;;4937211;29;20047;-75
2022/03/17 10:39:46;;;;;;;13.20;2.08;;;9.50;99.90;;;;;;4937132;29;20043;-75
2022/03/17 10:42:21;;;;;;;12.77;2.10;;;9.80;99.90;;;;;;4937312;29;20047;-75
2022/03/17 10:45:05;;;;;;;12.77;2.60;;;9.90;99.90;;;;;;4937141;29;20047;-75
2022/03/17 10:47:37;;;;;;;8.48;1.88;;;9.80;99.90;;;;;;4954004;29;20047;-75
2022/03/17 10:50:17;;;;;;;10.57;2.28;;;9.80;99.90;;;;;;4936874;29;20089;-75
2022/03/17 10:52:57;;;;;;;13.23;2.42;;;9.70;99.90;;;;;;4936469;29;20066;-75
2022/03/17 10:55:28;;;;;;;9.52;1.85;;;9.50;99.90;;;;;;4954064;29;20119;-75
2022/03/17 10:58:16;;;;;;;11.18;2.42;;;9.40;99.90;;;;;;4954314;29;20118;-75
2022/03/17 11:00:49;;;;;;;10.88;2.00;;;9.60;99.90;;;;;;4936846;29;20110;-75
2022/03/17 11:03:15;;;;;;;11.63;2.33;;;9.30;99.90;;;;;;4936760;29;20050;-75
2022/03/17 11:05:42;;;;;;;10.52;2.25;;;9.70;99.90;;;;;;4936924;29;20055;-74
2022/03/17 11:08:11;;;;;;;9.57;2.08;;;9.80;99.90;;;;;;4920971;29;20506;-75
2022/03/17 11:10:39;;;;;;;8.52;1.85;;;9.80;99.90;;;;;;4936380;29;20047;-75
2022/03/17 11:13:11;;;;;;;8.52;2.05;;;9.70;99.90;;;;;;4936553;29;20051;-75
2022/03/17 11:15:41;;;;;;;10.32;2.00;;;10.00;99.90;;;;;;4935479;29;20043;-74
2022/03/17 11:18:12;;;;;;;11.45;2.20;;;10.30;99.90;;;;;;4954023;29;20035;-75
2022/03/17 11:20:38;;;;;;;10.82;2.42;;;10.40;99.90;;;;;;4936236;29;20050;-74
2022/03/17 11:23:05;;;;;;;12.02;2.10;;;10.50;99.90;;;;;;4936275;29;20039;-74
2022/03/17 11:25:34;;;;;;;11.38;2.05;;;10.50;99.90;;;;;;4936696;29;20069;-74
2022/03/17 11:28:02;;;;;;;9.50;2.13;;;10.60;99.90;;;;;;4945919;29;20043;-74
2022/03/17 11:30:51;;;;;;;9.73;1.85;;;10.90;99.90;;;;;;4953750;29;20426;-74
2022/03/17 11:33:44;;;;;;;9.27;2.10;;;11.20;99.90;;;;;;4935324;29;20093;-74
2022/03/17 11:36:10;;;;;;;6.93;1.60;;;11.60;99.90;;;;;;4921983;29;20102;-74
2022/03/17 11:38:42;;;;;;;7.78;2.15;;;11.70;99.90;;;;;;4936052;29;20059;-74
2022/03/17 11:41:23;;;;;;;10.55;1.90;;;11.60;99.90;;;;;;4936334;29;20507;-74
2022/03/17 11:43:49;;;;;;;10.48;2.22;;;11.70;99.90;;;;;;4935612;29;20047;-74
2022/03/17 11:46:23;;;;;;;8.55;2.00;;;11.30;99.90;;;;;;4920081;29;20151;-74
2022/03/17 11:48:56;;;;;;;10.88;2.35;;;11.60;99.90;;;;;;4935329;29;20090;-74
2022/03/17 11:51:25;;;;;;;7.88;2.20;;;11.60;99.90;;;;;;4935685;29;20050;-74
2022/03/17 11:53:50;;;;;;;7.43;1.95;;;11.80;99.80;;;;;;4935561;29;20070;-73
2022/03/17 11:56:45;;;;;;;6.53;1.70;;;11.40;98.80;;;;;;4935657;29;20042;-74
2022/03/17 11:59:16;;;;;;;8.98;2.30;;;11.40;99.60;;;;;;4928754;29;20387;-74
2022/03/17 12:01:49;;;;;;;9.27;2.50;;;11.50;99.90;;;;;;4920082;29;20069;-74
2022/03/17 12:04:30;;;;;;;7.70;1.90;;;11.80;99.70;;;;;;4935830;29;20106;-74
2022/03/17 12:07:20;;;;;;;8.63;1.92;;;11.30;99.30;;;;;;4935761;29;20047;-74
2022/03/17 12:09:47;;;;;;;12.23;2.00;;;11.30;99.70;;;;;;4935998;29;20058;-74
2022/03/17 12:12:29;;;;;;;7.00;1.73;;;11.30;99.70;;;;;;4935961;29;20101;-75
2022/03/17 12:15:00;;;;;;;8.73;1.80;;;11.20;99.90;;;;;;4935441;29;20105;-74
2022/03/17 12:17:29;;;;;;;10.55;2.45;;;11.20;99.80;;;;;;4935622;29;20339;-74
2022/03/17 12:20:07;;;;;;;10.43;2.13;;;11.20;99.70;;;;;;4935231;29;20576;-74
2022/03/17 12:22:39;;;;;;;9.90;2.22;;;11.20;99.90;;;;;;4929089;29;20153;-74
2022/03/17 12:25:12;;;;;;;9.35;1.95;;;11.60;99.90;;;;;;4935448;29;20070;-74
2022/03/17 12:27:40;;;;;;;8.70;1.92;;;11.60;99.90;;;;;;4935225;29;20070;-74
2022/03/17 12:30:06;;;;;;;8.38;1.73;;;11.10;99.10;;;;;;4935223;29;20051;-75
2022/03/17 12:32:39;;;;;;;6.40;1.65;;;11.20;99.20;;;;;;4935443;29;20153;-75
2022/03/17 12:35:06;;;;;;;10.52;2.00;;;11.20;99.70;;;;;;4934898;29;20047;-75
2022/03/17 12:37:34;;;;;;;10.95;2.30;;;11.40;99.90;;;;;;4927886;29;20363;-75
2022/03/17 12:40:02;;;;;;;9.40;1.98;;;11.80;99.90;;;;;;4935081;29;20078;-75
2022/03/17 12:42:31;;;;;;;8.55;1.90;;;11.80;99.80;;;;;;4935028;29;20197;-75
2022/03/17 12:45:06;;;;;;;6.95;1.70;;;11.90;99.90;;;;;;4935145;29;20094;-75
2022/03/17 12:47:34;;;;;;;7.35;2.45;;;11.70;97.90;;;;;;4947486;29;20509;-75
2022/03/17 12:50:03;;;;;;;7.30;1.80;;;11.60;96.80;;;;;;4934941;29;20324;-75
2022/03/17 12:52:30;;;;;;;8.32;1.60;;;11.70;97.00;;;;;;4934650;29;20059;-75
2022/03/17 12:55:01;;;;;;;7.47;1.80;;;11.50;97.80;;;;;;4934585;29;20043;-75
2022/03/17 12:57:29;;;;;;;10.43;2.30;;;11.20;97.90;;;;;;4919044;29;20122;-75
2022/03/17 12:59:56;;;;;;;10.15;1.67;;;11.10;99.80;;;;;;4919120;29;20063;-75
2022/03/17 13:02:22;;;;;;;6.25;1.70;;;11.40;99.90;;;;;;4934485;29;20043;-75
2022/03/17 13:04:50;;;;;;;;;;;11.50;99.90;;;;;;4935295;29;20094;-75